Time;durP1;ratioP1;P1;durP2;ratioP2;P2;SDS_P1;SDS_P2;PMS_P1;PMS_P2;Temp;Humidity;BMP_temperature;BMP_pressure;BME280_temperature;BME280_humidity;BME280_pressure;Samples;Min_cycle;Max_cycle;Signal;HPM_P1;HPM_P2
2023/03/22 00:01:56;;;;;;;16.95;9.40;;;;;;;9.55;100.00;100772.16;10433785;28;20033;-85
2023/03/22 00:06:56;;;;;;;16.00;8.82;;;;;;;9.59;100.00;100769.72;10417262;28;20048;-86
2023/03/22 00:11:57;;;;;;;15.65;8.75;;;;;;;9.50;100.00;100748.16;10403946;28;20057;-85
2023/03/22 00:16:57;;;;;;;14.68;8.73;;;;;;;9.57;100.00;100752.66;10447791;28;20044;-82
2023/03/22 00:21:59;;;;;;;23.25;9.75;;;;;;;9.48;100.00;100746.75;10406989;28;20034;-84
2023/03/22 00:27:00;;;;;;;16.13;9.38;;;;;;;9.44;100.00;100745.59;10393199;28;20041;-85
2023/03/22 00:32:01;;;;;;;14.38;8.20;;;;;;;9.40;100.00;100745.25;10393206;28;20033;-84
2023/03/22 00:37:02;;;;;;;17.63;9.13;;;;;;;9.36;100.00;100737.75;10392462;28;20215;-85
2023/03/22 00:42:04;;;;;;;18.65;9.13;;;;;;;9.35;100.00;100736.09;10407215;28;20038;-85
2023/03/22 00:47:05;;;;;;;12.10;8.65;;;;;;;9.35;100.00;100731.44;10407702;28;20037;-85
2023/03/22 00:52:05;;;;;;;13.35;8.48;;;;;;;9.35;100.00;100730.59;10407770;28;20034;-84
2023/03/22 00:57:06;;;;;;;13.52;9.15;;;;;;;9.33;100.00;100736.34;10392327;28;20060;-85
2023/03/22 01:02:07;;;;;;;16.65;10.40;;;;;;;9.32;100.00;100720.94;10408188;28;20033;-81
2023/03/22 01:07:07;;;;;;;18.67;10.93;;;;;;;9.21;100.00;100713.63;10406372;28;20065;-85
2023/03/22 01:12:08;;;;;;;15.02;9.20;;;;;;;9.24;100.00;100713.09;10387665;28;20052;-85
2023/03/22 01:17:09;;;;;;;11.77;8.55;;;;;;;9.18;100.00;100700.41;10372412;28;20044;-86
2023/03/22 01:22:09;;;;;;;10.52;7.07;;;;;;;9.21;100.00;100719.09;10389608;28;20647;-85
2023/03/22 01:27:10;;;;;;;16.23;7.75;;;;;;;9.23;100.00;100705.94;10391794;28;20046;-86
2023/03/22 01:32:11;;;;;;;15.82;8.15;;;;;;;9.17;100.00;100696.78;10407679;28;20093;-84
2023/03/22 01:37:11;;;;;;;17.65;7.07;;;;;;;9.15;100.00;100692.63;10373338;28;20045;-84
2023/03/22 01:42:13;;;;;;;14.35;8.23;;;;;;;9.16;100.00;100686.06;10357601;28;20038;-84
2023/03/22 01:47:13;;;;;;;13.10;8.02;;;;;;;9.15;100.00;100687.16;10324178;28;20089;-84
2023/03/22 01:52:14;;;;;;;13.32;7.00;;;;;;;9.05;100.00;100661.19;10308807;28;20089;-84
2023/03/22 01:57:14;;;;;;;16.15;6.32;;;;;;;9.05;100.00;100655.69;10309130;28;20034;-84
2023/03/22 02:02:17;;;;;;;13.07;6.78;;;;;;;8.89;100.00;100632.63;10293499;28;20069;-85
2023/03/22 02:07:24;;;;;;;11.10;5.18;;;;;;;9.13;100.00;100659.09;10325065;28;20103;-86
2023/03/22 02:12:37;;;;;;;12.32;4.72;;;;;;;9.13;100.00;100645.38;10402677;28;20041;-85
2023/03/22 02:17:42;;;;;;;11.23;6.22;;;;;;;9.08;100.00;100638.72;10408269;28;20041;-86
2023/03/22 02:23:07;;;;;;;14.38;6.05;;;;;;;9.04;100.00;100654.00;10390011;28;20158;-85
2023/03/22 02:28:38;;;;;;;9.38;5.00;;;;;;;9.04;100.00;100632.03;10365304;28;20042;-83
2023/03/22 02:33:51;;;;;;;13.55;4.95;;;;;;;9.09;100.00;100634.91;10407250;28;20052;-83
2023/03/22 02:39:21;;;;;;;11.55;5.22;;;;;;;9.09;100.00;100623.91;10394094;28;20040;-86
2023/03/22 02:44:44;;;;;;;12.10;4.78;;;;;;;9.04;100.00;100626.56;10376465;28;20049;-84
2023/03/22 02:49:52;;;;;;;10.05;5.05;;;;;;;9.01;100.00;100616.09;10366486;28;20081;-85
2023/03/22 02:54:59;;;;;;;9.55;4.15;;;;;;;9.12;100.00;100606.09;10339471;28;20087;-83
2023/03/22 02:59:59;;;;;;;10.13;5.10;;;;;;;9.08;100.00;100610.41;10373285;28;20038;-84
2023/03/22 03:05:00;;;;;;;13.43;5.25;;;;;;;9.00;100.00;100603.44;10354860;28;20030;-84
2023/03/22 03:10:00;;;;;;;15.55;6.13;;;;;;;8.93;100.00;100611.00;10333549;28;20039;-85
2023/03/22 03:15:01;;;;;;;9.35;4.78;;;;;;;8.88;100.00;100600.75;10297355;28;20062;-85
2023/03/22 03:20:11;;;;;;;13.40;5.90;;;;;;;8.87;100.00;100604.59;10313729;28;20047;-85
2023/03/22 03:25:21;;;;;;;9.48;5.10;;;;;;;8.86;100.00;100610.34;10367390;28;20285;-85
2023/03/22 03:30:31;;;;;;;8.40;4.05;;;;;;;8.86;100.00;100588.38;10338855;28;20430;-87
2023/03/22 03:35:39;;;;;;;13.27;4.80;;;;;;;8.79;100.00;100580.31;10338648;28;20111;-85
2023/03/22 03:40:42;;;;;;;17.63;4.60;;;;;;;8.82;100.00;100568.00;10393384;28;20080;-85
2023/03/22 03:45:43;;;;;;;12.65;4.78;;;;;;;8.81;100.00;100571.84;10352773;28;20054;-85
2023/03/22 03:50:43;;;;;;;14.95;4.68;;;;;;;8.80;100.00;100553.69;10336933;28;20034;-85
2023/03/22 03:55:44;;;;;;;10.48;4.95;;;;;;;8.91;100.00;100565.66;10353340;28;20054;-84
2023/03/22 04:00:45;;;;;;;12.90;4.18;;;;;;;8.82;100.00;100557.00;10354050;28;20498;-84
2023/03/22 04:05:45;;;;;;;7.38;3.92;;;;;;;8.74;100.00;100543.72;10389349;28;20456;-85
2023/03/22 04:10:50;;;;;;;10.38;4.88;;;;;;;8.71;100.00;100542.31;10378451;28;20030;-86
2023/03/22 04:15:52;;;;;;;13.80;4.78;;;;;;;8.78;100.00;100553.09;10391647;28;20061;-85
2023/03/22 04:20:55;;;;;;;14.35;4.40;;;;;;;8.76;100.00;100536.88;10359735;28;20144;-85
2023/03/22 04:25:58;;;;;;;5.90;3.83;;;;;;;8.68;100.00;100527.19;10376872;28;20041;-85
2023/03/22 04:30:58;;;;;;;12.10;4.60;;;;;;;8.62;100.00;100516.34;10393384;28;20053;-85
2023/03/22 04:35:59;;;;;;;14.43;4.20;;;;;;;8.63;100.00;100524.34;10388798;28;20048;-85
2023/03/22 04:40:59;;;;;;;10.80;3.92;;;;;;;8.43;100.00;100504.78;10408975;28;20037;-80
2023/03/22 04:46:00;;;;;;;8.98;5.00;;;;;;;8.51;100.00;100515.34;10408510;28;20037;-85
2023/03/22 04:51:02;;;;;;;11.13;4.57;;;;;;;8.54;100.00;100523.09;10390557;28;20038;-87
2023/03/22 04:56:07;;;;;;;15.30;5.78;;;;;;;8.54;100.00;100523.09;10407320;28;20033;-82
2023/03/22 05:01:09;;;;;;;9.65;5.03;;;;;;;8.52;100.00;100517.03;10392070;28;20037;-88
2023/03/22 05:06:09;;;;;;;13.05;4.93;;;;;;;8.46;100.00;100501.56;10392044;28;20057;-84
2023/03/22 05:11:15;;;;;;;13.95;5.43;;;;;;;8.58;100.00;100517.94;10367911;28;20038;-85
2023/03/22 05:16:15;;;;;;;11.40;6.50;;;;;;;8.68;100.00;100516.19;10365711;28;20038;-86
2023/03/22 05:21:20;;;;;;;15.80;7.45;;;;;;;8.68;100.00;100491.50;10352940;28;20037;-81
2023/03/22 05:26:23;;;;;;;17.02;9.00;;;;;;;8.79;100.00;100491.66;10390671;28;20131;-85
2023/03/22 05:31:24;;;;;;;18.80;10.95;;;;;;;8.90;100.00;100476.97;10391192;28;20490;-85
2023/03/22 05:36:24;;;;;;;23.50;12.05;;;;;;;9.16;100.00;100496.56;10373206;28;20129;-85
2023/03/22 05:41:25;;;;;;;25.55;12.23;;;;;;;9.23;100.00;100491.69;10390147;28;20056;-85
2023/03/22 05:46:25;;;;;;;18.77;12.18;;;;;;;9.33;100.00;100474.53;10403791;28;20038;-85
2023/03/22 05:51:26;;;;;;;16.08;11.20;;;;;;;9.37;100.00;100465.50;10405010;28;20040;-86
2023/03/22 05:56:26;;;;;;;18.10;11.88;;;;;;;9.36;100.00;100471.25;10390428;28;20418;-85
2023/03/22 06:01:27;;;;;;;17.85;11.60;;;;;;;9.33;100.00;100447.88;10405734;28;20057;-85
2023/03/22 06:06:27;;;;;;;35.72;13.70;;;;;;;9.41;100.00;100461.16;10391457;28;20041;-85
2023/03/22 06:11:29;;;;;;;26.38;13.63;;;;;;;9.35;100.00;100451.19;10381815;28;20699;-87
2023/03/22 06:16:30;;;;;;;21.80;12.57;;;;;;;9.42;100.00;100457.31;10380681;28;20542;-87
2023/03/22 06:21:31;;;;;;;20.98;12.35;;;;;;;9.33;100.00;100436.88;10380772;28;20068;-85
2023/03/22 06:26:32;;;;;;;21.77;11.88;;;;;;;9.44;100.00;100460.63;10398128;28;20445;-87
2023/03/22 06:31:33;;;;;;;20.88;12.73;;;;;;;9.43;100.00;100447.19;10414854;28;20086;-85
2023/03/22 06:36:33;;;;;;;15.93;10.70;;;;;;;9.49;100.00;100446.97;10397713;28;20473;-84
2023/03/22 06:41:34;;;;;;;18.25;12.13;;;;;;;9.49;100.00;100421.41;10395575;28;20453;-85
2023/03/22 06:46:34;;;;;;;18.40;11.00;;;;;;;9.62;100.00;100456.72;10395446;28;20518;-81
2023/03/22 06:51:35;;;;;;;19.63;11.75;;;;;;;9.76;100.00;100429.66;10445531;28;20075;-79
2023/03/22 06:56:35;;;;;;;19.52;10.65;;;;;;;10.00;100.00;100432.06;10388745;28;20112;-79
2023/03/22 07:01:36;;;;;;;14.52;9.57;;;;;;;10.06;100.00;100436.53;10421330;28;20041;-76
2023/03/22 07:06:36;;;;;;;15.65;9.23;;;;;;;10.03;100.00;100428.81;10436678;28;20048;-82
2023/03/22 07:11:37;;;;;;;18.13;10.27;;;;;;;10.10;100.00;100424.72;10425762;28;20117;-80
2023/03/22 07:16:37;;;;;;;13.13;8.80;;;;;;;10.14;100.00;100392.03;10361967;28;20030;-82
2023/03/22 07:21:38;;;;;;;13.75;8.60;;;;;;;10.38;100.00;100408.22;10378143;28;20063;-80
2023/03/22 07:26:39;;;;;;;13.45;7.78;;;;;;;10.46;100.00;100411.28;10348738;28;20580;-83
2023/03/22 07:31:41;;;;;;;12.88;7.97;;;;;;;10.46;100.00;100405.78;10373209;28;20049;-79
2023/03/22 07:36:41;;;;;;;14.63;8.40;;;;;;;10.42;100.00;100393.66;10336403;28;20034;-85
2023/03/22 07:41:42;;;;;;;12.75;7.45;;;;;;;10.61;100.00;100394.03;10368589;28;20041;-87
2023/03/22 07:46:42;;;;;;;13.27;7.07;;;;;;;10.60;100.00;100386.88;10353413;28;20544;-84
2023/03/22 07:51:43;;;;;;;14.18;6.85;;;;;;;10.53;100.00;100397.28;10353225;28;20046;-85
2023/03/22 07:56:46;;;;;;;11.93;6.75;;;;;;;10.80;100.00;100410.13;10321570;28;20046;-84
2023/03/22 08:01:47;;;;;;;12.25;6.93;;;;;;;10.96;100.00;100397.25;10369778;28;20033;-83
2023/03/22 08:06:48;;;;;;;14.68;7.07;;;;;;;10.82;100.00;100403.25;10367737;28;20052;-85
2023/03/22 08:11:49;;;;;;;14.48;6.82;;;;;;;10.86;100.00;100398.84;10368965;28;20053;-82
2023/03/22 08:16:49;;;;;;;12.75;6.93;;;;;;;10.83;100.00;100404.91;10334979;28;20042;-76
2023/03/22 08:21:50;;;;;;;13.13;5.82;;;;;;;10.68;100.00;100380.03;10352488;28;20076;-84
2023/03/22 08:26:51;;;;;;;9.75;5.47;;;;;;;10.59;100.00;100385.22;10377634;28;20060;-84
2023/03/22 08:31:51;;;;;;;12.57;4.53;;;;;;;10.55;100.00;100391.53;10360317;28;20128;-83
2023/03/22 08:36:52;;;;;;;9.25;4.68;;;;;;;9.98;100.00;100302.25;10391321;28;20045;-85
2023/03/22 08:41:52;;;;;;;10.02;5.47;;;;;;;10.80;100.00;100374.31;10354291;28;20592;-83
2023/03/22 08:46:53;;;;;;;18.42;4.95;;;;;;;11.01;100.00;100370.53;10369993;28;20033;-81
2023/03/22 08:51:53;;;;;;;8.63;4.57;;;;;;;11.41;100.00;100371.78;10351857;28;20083;-80
2023/03/22 08:56:54;;;;;;;10.45;4.72;;;;;;;11.31;100.00;100372.59;10387210;28;20045;-81
2023/03/22 09:01:54;;;;;;;9.10;4.50;;;;;;;11.09;100.00;100361.75;10371432;28;20067;-84
2023/03/22 09:06:55;;;;;;;14.40;5.30;;;;;;;11.18;100.00;100364.81;10387721;28;20105;-72
2023/03/22 09:11:56;;;;;;;9.55;4.18;;;;;;;11.54;100.00;100359.41;10339615;28;20999;-81
2023/03/22 09:16:57;;;;;;;9.32;4.50;;;;;;;11.52;100.00;100356.91;10382700;28;20061;-85
2023/03/22 09:21:57;;;;;;;9.90;3.92;;;;;;;11.44;100.00;100343.66;10360420;28;20037;-83
2023/03/22 09:26:58;;;;;;;11.40;4.18;;;;;;;11.43;100.00;100336.50;10336752;28;20053;-82
2023/03/22 09:31:58;;;;;;;7.80;3.53;;;;;;;11.45;100.00;100328.78;10368102;28;20092;-85
2023/03/22 09:37:01;;;;;;;12.07;3.67;;;;;;;11.51;100.00;100341.50;10357003;28;20056;-84
2023/03/22 09:42:01;;;;;;;11.75;3.65;;;;;;;11.44;100.00;100354.69;10406354;28;20609;-86
2023/03/22 09:47:04;;;;;;;9.73;3.60;;;;;;;11.32;100.00;100346.66;10304216;28;20137;-80
2023/03/22 09:52:08;;;;;;;10.52;4.53;;;;;;;11.05;100.00;100313.00;10345944;28;20061;-82
2023/03/22 09:57:31;;;;;;;8.25;3.38;;;;;;;11.49;100.00;100346.44;10369707;28;20038;-80
2023/03/22 10:03:09;;;;;;;12.68;3.20;;;;;;;11.59;100.00;100334.59;10384928;28;20033;-80
2023/03/22 10:08:17;;;;;;;9.43;3.42;;;;;;;11.69;100.00;100355.81;10380317;28;20076;-82
2023/03/22 10:13:27;;;;;;;15.48;4.53;;;;;;;11.71;100.00;100353.63;10356602;28;20038;-78
2023/03/22 10:18:35;;;;;;;10.60;3.88;;;;;;;11.49;100.00;100354.72;10384266;28;20124;-80
2023/03/22 10:23:40;;;;;;;12.75;3.97;;;;;;;11.21;100.00;100322.13;10387502;28;20045;-80
2023/03/22 10:28:42;;;;;;;6.32;3.60;;;;;;;11.08;100.00;100346.34;10348174;28;20045;-76
2023/03/22 10:34:01;;;;;;;12.52;4.03;;;;;;;10.26;100.00;100235.88;10348898;28;20038;-82
2023/03/22 10:39:16;;;;;;;18.00;4.65;;;;;;;10.89;100.00;100347.91;10394884;28;20492;-79
2023/03/22 10:44:16;;;;;;;7.93;3.80;;;;;;;10.85;100.00;100361.41;10361920;28;20049;-78
2023/03/22 10:49:30;;;;;;;12.25;4.75;;;;;;;10.66;100.00;100363.78;10332569;28;20034;-78
2023/03/22 10:54:30;;;;;;;14.07;4.82;;;;;;;10.46;100.00;100363.69;10313133;28;20605;-74
2023/03/22 10:59:50;;;;;;;19.95;6.25;;;;;;;10.51;100.00;100385.72;10378735;28;20045;-76
2023/03/22 11:04:52;;;;;;;9.35;4.20;;;;;;;10.28;100.00;100382.25;10434197;28;20037;-78
2023/03/22 11:10:20;;;;;;;7.65;4.47;;;;;;;10.36;100.00;100385.63;10421494;28;20040;-78
2023/03/22 11:15:31;;;;;;;10.63;5.10;;;;;;;10.21;100.00;100381.66;10384383;28;20414;-78
2023/03/22 11:20:32;;;;;;;11.70;5.63;;;;;;;10.17;100.00;100402.53;10376357;28;20049;-77
2023/03/22 11:25:34;;;;;;;8.48;5.35;;;;;;;9.95;100.00;100393.53;10370371;28;20046;-82
2023/03/22 11:30:35;;;;;;;15.25;6.55;;;;;;;10.01;100.00;100411.75;10358664;28;20034;-82
2023/03/22 11:35:36;;;;;;;14.88;6.30;;;;;;;9.88;100.00;100408.34;10373323;28;20054;-78
2023/03/22 11:40:37;;;;;;;12.98;5.63;;;;;;;10.03;100.00;100417.81;10375376;28;20050;-80
2023/03/22 11:45:40;;;;;;;12.27;5.90;;;;;;;10.21;100.00;100398.16;10322711;28;20577;-81
2023/03/22 11:50:42;;;;;;;10.90;5.22;;;;;;;10.42;100.00;100398.34;10369679;28;20030;-80
2023/03/22 11:55:43;;;;;;;8.82;5.07;;;;;;;10.31;100.00;100358.91;10381108;28;20088;-84
2023/03/22 12:00:43;;;;;;;12.45;4.93;;;;;;;10.55;100.00;100370.34;10372384;28;20048;-83
2023/03/22 12:05:45;;;;;;;19.67;6.40;;;;;;;10.51;100.00;100369.22;10383975;28;20482;-83
2023/03/22 12:10:51;;;;;;;11.13;4.10;;;;;;;10.43;100.00;100384.28;10409726;28;20156;-86
2023/03/22 12:15:54;;;;;;;12.82;4.90;;;;;;;10.41;100.00;100391.16;10390704;28;20038;-86
2023/03/22 12:20:55;;;;;;;12.82;4.70;;;;;;;10.36;100.00;100383.72;10294844;28;20463;-87
2023/03/22 12:26:01;;;;;;;6.90;4.05;;;;;;;10.34;100.00;100365.81;10329920;28;20380;-84
2023/03/22 12:31:02;;;;;;;9.82;4.07;;;;;;;10.44;100.00;100383.22;10353213;28;20069;-87
2023/03/22 12:36:03;;;;;;;7.03;3.88;;;;;;;10.30;100.00;100396.59;10334872;28;20053;-88
2023/03/22 12:41:06;;;;;;;9.85;4.57;;;;;;;10.18;100.00;100400.59;10366619;28;20060;-87
2023/03/22 12:46:06;;;;;;;7.05;3.72;;;;;;;10.19;100.00;100411.34;10334956;28;20057;-81
2023/03/22 12:51:08;;;;;;;10.27;4.25;;;;;;;10.27;100.00;100386.09;10335246;28;20037;-82
2023/03/22 12:56:39;;;;;;;7.97;4.18;;;;;;;10.25;100.00;100382.78;10334237;28;20485;-86
2023/03/22 13:01:59;;;;;;;15.70;7.05;;;;;;;10.14;100.00;100421.47;10401935;28;20379;-81
2023/03/22 13:07:53;;;;;;;11.13;5.57;;;;;;;10.05;100.00;100410.13;10408502;28;20049;-82
2023/03/22 13:13:33;;;;;;;11.52;6.68;;;;;;;9.98;100.00;100420.50;10407491;28;20149;-77
2023/03/22 13:18:41;;;;;;;13.82;6.68;;;;;;;9.80;100.00;100416.25;10337261;28;20037;-81
2023/03/22 13:23:53;;;;;;;14.10;6.32;;;;;;;9.80;100.00;100427.22;10374359;28;20118;-82
2023/03/22 13:28:57;;;;;;;11.10;6.53;;;;;;;9.98;100.00;100442.50;10407164;28;20038;-84
2023/03/22 13:34:00;;;;;;;16.25;6.82;;;;;;;9.82;100.00;100423.13;10407768;28;20045;-82
2023/03/22 13:39:04;;;;;;;14.15;7.90;;;;;;;9.99;100.00;100438.69;10389796;28;20033;-81
2023/03/22 13:44:24;;;;;;;9.52;6.78;;;;;;;10.08;100.00;100434.34;10403340;28;20048;-81
2023/03/22 13:49:41;;;;;;;12.98;7.38;;;;;;;10.00;100.00;100434.81;10340191;28;20041;-80
2023/03/22 13:54:42;;;;;;;16.05;6.40;;;;;;;10.10;100.00;100441.22;10350003;28;20045;-81
2023/03/22 14:00:00;;;;;;;16.60;7.60;;;;;;;10.05;100.00;100432.13;10342891;28;20482;-81
2023/03/22 14:05:12;;;;;;;11.27;6.95;;;;;;;9.93;100.00;100423.22;10371493;28;20141;-84
2023/03/22 14:10:19;;;;;;;14.45;8.30;;;;;;;9.97;100.00;100432.59;10384518;28;20412;-79
2023/03/22 14:15:28;;;;;;;15.27;7.63;;;;;;;9.96;100.00;100431.75;10385871;28;20037;-82
2023/03/22 14:20:34;;;;;;;14.55;7.25;;;;;;;9.90;100.00;100422.66;10351979;28;20034;-80
2023/03/22 14:25:35;;;;;;;12.63;8.20;;;;;;;9.74;100.00;100420.84;10372843;28;20037;-81
2023/03/22 14:30:36;;;;;;;13.90;7.90;;;;;;;9.78;100.00;100432.97;10380215;28;20037;-78
2023/03/22 14:35:37;;;;;;;11.65;8.18;;;;;;;9.82;100.00;100439.63;10381524;28;20037;-78
2023/03/22 14:40:38;;;;;;;14.88;8.57;;;;;;;9.79;100.00;100433.81;10365557;28;20052;-79
2023/03/22 14:45:39;;;;;;;16.48;8.75;;;;;;;9.81;100.00;100432.44;10323192;28;20125;-79
2023/03/22 14:50:46;;;;;;;16.13;8.70;;;;;;;9.96;100.00;100426.25;10372197;28;20042;-80
2023/03/22 14:55:49;;;;;;;10.50;7.90;;;;;;;9.95;100.00;100429.28;10393372;28;20469;-79
2023/03/22 15:00:49;;;;;;;11.55;7.50;;;;;;;9.87;100.00;100409.41;10395556;28;20030;-83
2023/03/22 15:05:50;;;;;;;12.88;7.65;;;;;;;9.93;100.00;100412.22;10395578;28;20041;-81
2023/03/22 15:10:55;;;;;;;13.32;7.35;;;;;;;9.92;100.00;100410.53;10362514;28;20033;-81
2023/03/22 15:15:56;;;;;;;9.27;7.60;;;;;;;9.94;100.00;100411.13;10379610;28;20033;-80
2023/03/22 15:20:56;;;;;;;12.23;7.57;;;;;;;9.89;100.00;100395.41;10395702;28;20029;-83
2023/03/22 15:25:59;;;;;;;12.45;7.28;;;;;;;9.97;100.00;100392.19;10391506;28;20210;-84
2023/03/22 15:31:02;;;;;;;9.73;6.70;;;;;;;9.44;100.00;100300.44;10354563;28;20038;-84
2023/03/22 15:36:03;;;;;;;14.18;8.25;;;;;;;10.03;100.00;100384.81;10315335;28;20038;-83
2023/03/22 15:41:18;;;;;;;15.23;7.05;;;;;;;10.00;100.00;100379.81;10324367;28;20125;-85
2023/03/22 15:46:19;;;;;;;9.60;6.88;;;;;;;9.95;100.00;100371.53;10376800;28;20047;-84
2023/03/22 15:51:21;;;;;;;13.60;6.82;;;;;;;10.03;100.00;100379.31;10393810;28;20040;-86
2023/03/22 15:56:36;;;;;;;13.35;6.10;;;;;;;9.42;100.00;100292.47;10362147;28;20136;-83
2023/03/22 16:01:45;;;;;;;9.13;6.72;;;;;;;9.87;100.00;100370.91;10392521;28;20151;-84
2023/03/22 16:06:46;;;;;;;15.07;6.57;;;;;;;9.98;100.00;100376.50;10360493;28;20058;-87
2023/03/22 16:11:46;;;;;;;9.50;7.03;;;;;;;10.06;100.00;100373.28;10335777;28;20034;-85
2023/03/22 16:16:47;;;;;;;14.02;6.50;;;;;;;9.90;100.00;100353.06;10369362;28;20045;-85
2023/03/22 16:21:48;;;;;;;12.30;7.00;;;;;;;9.97;100.00;100355.59;10355020;28;20049;-87
2023/03/22 16:26:48;;;;;;;13.00;7.10;;;;;;;10.06;100.00;100371.34;10389145;28;20062;-86
2023/03/22 16:31:49;;;;;;;13.77;7.57;;;;;;;10.01;100.00;100356.75;10356844;28;20213;-87
2023/03/22 16:36:49;;;;;;;9.35;7.20;;;;;;;10.12;100.00;100383.22;10369138;28;20048;-87
2023/03/22 16:41:50;;;;;;;6.90;5.90;;;;;;;10.04;100.00;100354.28;10432618;28;20025;-88
2023/03/22 16:46:50;;;;;;;9.38;6.53;;;;;;;9.98;100.00;100338.00;10411576;28;20090;-86
2023/03/22 16:51:51;;;;;;;12.80;6.93;;;;;;;10.13;100.00;100357.38;10448937;28;20044;-85
2023/03/22 16:56:51;;;;;;;8.43;7.28;;;;;;;10.09;100.00;100368.06;10425630;28;20445;-83
2023/03/22 17:01:52;;;;;;;17.10;7.47;;;;;;;10.00;100.00;100330.31;10392433;28;20041;-87
2023/03/22 17:06:53;;;;;;;10.63;7.53;;;;;;;10.07;100.00;100351.00;10341391;28;20041;-86
2023/03/22 17:11:53;;;;;;;12.52;8.55;;;;;;;10.00;100.00;100342.13;10367111;28;20169;-87
2023/03/22 17:16:54;;;;;;;14.05;8.98;;;;;;;9.99;100.00;100339.69;10333324;28;20069;-87
2023/03/22 17:21:54;;;;;;;11.60;7.55;;;;;;;10.07;100.00;100352.94;10333431;28;20109;-88
2023/03/22 17:26:55;;;;;;;14.10;8.55;;;;;;;10.05;100.00;100353.19;10349142;28;20052;-84
2023/03/22 17:31:56;;;;;;;15.07;7.80;;;;;;;10.02;100.00;100333.63;10386075;28;20072;-89
2023/03/22 17:36:56;;;;;;;12.73;8.45;;;;;;;10.05;100.00;100347.69;10372625;28;20500;-84
2023/03/22 17:41:57;;;;;;;11.80;10.18;;;;;;;10.06;100.00;100351.28;10390664;28;20053;-72
2023/03/22 17:46:58;;;;;;;19.73;14.32;;;;;;;10.02;100.00;100334.47;10378140;28;20037;-87
2023/03/22 17:51:58;;;;;;;22.20;11.85;;;;;;;10.01;100.00;100338.31;10399265;28;20033;-84
2023/03/22 17:56:59;;;;;;;23.13;10.45;;;;;;;10.02;100.00;100348.22;10419425;28;20066;-82
2023/03/22 18:02:00;;;;;;;17.23;8.90;;;;;;;9.99;100.00;100334.19;10399959;28;20033;-87
2023/03/22 18:07:00;;;;;;;9.07;7.63;;;;;;;9.98;100.00;100341.56;10439990;28;20108;-86
2023/03/22 18:12:01;;;;;;;10.63;8.18;;;;;;;10.08;100.00;100362.84;10460488;28;20037;-87
2023/03/22 18:17:02;;;;;;;13.00;8.10;;;;;;;10.12;100.00;100372.22;10461094;28;20033;-87
2023/03/22 18:22:02;;;;;;;12.48;7.35;;;;;;;10.13;100.00;100368.38;10461363;28;20047;-87
2023/03/22 18:27:03;;;;;;;11.88;8.45;;;;;;;10.10;100.00;100366.16;10462100;28;20155;-86
2023/03/22 18:32:04;;;;;;;13.85;8.95;;;;;;;10.11;100.00;100376.06;10460578;28;20045;-79
2023/03/22 18:37:07;;;;;;;14.30;10.27;;;;;;;9.97;100.00;100374.84;10425738;28;20071;-81
2023/03/22 18:42:07;;;;;;;14.23;10.05;;;;;;;9.88;100.00;100367.09;10449976;28;20120;-79
2023/03/22 18:47:13;;;;;;;16.13;11.63;;;;;;;9.92;100.00;100380.31;10409301;28;20037;-86
2023/03/22 18:52:14;;;;;;;19.93;11.63;;;;;;;9.86;100.00;100355.53;10427730;28;20076;-83
2023/03/22 18:57:15;;;;;;;16.73;11.90;;;;;;;9.74;100.00;100354.88;10419183;28;20698;-84
2023/03/22 19:02:15;;;;;;;18.40;12.75;;;;;;;9.76;100.00;100355.44;10401506;28;20141;-84
2023/03/22 19:07:16;;;;;;;16.10;12.75;;;;;;;9.76;100.00;100347.19;10398699;28;20056;-86
2023/03/22 19:12:16;;;;;;;18.17;13.15;;;;;;;9.84;100.00;100337.66;10402537;28;20046;-84
2023/03/22 19:17:17;;;;;;;19.55;12.20;;;;;;;9.86;100.00;100313.44;10391622;28;20401;-83
2023/03/22 19:22:17;;;;;;;18.70;13.63;;;;;;;9.85;100.00;100333.78;10411874;28;20072;-85
2023/03/22 19:27:18;;;;;;;20.95;13.50;;;;;;;9.86;100.00;100322.53;10361962;28;20048;-83
2023/03/22 19:32:18;;;;;;;17.67;13.93;;;;;;;9.83;100.00;100324.97;10430166;28;20458;-84
2023/03/22 19:37:19;;;;;;;21.05;14.23;;;;;;;9.87;100.00;100353.59;10437957;28;20033;-86
2023/03/22 19:42:20;;;;;;;22.83;14.48;;;;;;;9.81;100.00;100343.66;10434409;28;20041;-86
2023/03/22 19:47:21;;;;;;;19.83;14.50;;;;;;;9.81;100.00;100349.97;10450134;28;20044;-81
2023/03/22 19:52:21;;;;;;;22.55;14.90;;;;;;;9.75;100.00;100340.03;10450600;28;20037;-86
2023/03/22 19:57:25;;;;;;;21.75;15.27;;;;;;;9.86;100.00;100369.28;10419042;28;20044;-80
2023/03/22 20:02:25;;;;;;;21.92;15.27;;;;;;;9.87;100.00;100365.41;10434213;28;20385;-82
2023/03/22 20:07:28;;;;;;;20.73;15.65;;;;;;;9.90;100.00;100329.16;10433976;28;20068;-79
2023/03/22 20:12:28;;;;;;;26.05;16.75;;;;;;;9.90;100.00;100315.41;10453454;28;20029;-79
2023/03/22 20:17:29;;;;;;;21.35;15.73;;;;;;;9.84;100.00;100296.41;10433221;28;20520;-81
2023/03/22 20:22:29;;;;;;;24.05;16.52;;;;;;;9.84;100.00;100293.66;10450146;28;20392;-79
2023/03/22 20:27:30;;;;;;;20.02;15.55;;;;;;;9.73;100.00;100264.41;10401080;28;20055;-80
2023/03/22 20:32:31;;;;;;;24.45;16.40;;;;;;;9.88;100.00;100303.84;10449933;28;20037;-71
2023/03/22 20:37:31;;;;;;;21.63;16.88;;;;;;;9.87;100.00;100284.88;10449540;28;20121;-80
2023/03/22 20:42:35;;;;;;;21.85;16.92;;;;;;;9.83;100.00;100272.75;10449925;28;20041;-80
2023/03/22 20:47:35;;;;;;;20.20;14.80;;;;;;;9.81;100.00;100267.50;10432071;28;20087;-81
2023/03/22 20:52:36;;;;;;;20.35;16.17;;;;;;;9.67;100.00;100236.06;10416248;28;20083;-79
2023/03/22 20:57:36;;;;;;;20.17;16.67;;;;;;;9.99;100.00;100284.69;10449759;28;20033;-79
2023/03/22 21:02:37;;;;;;;21.30;16.13;;;;;;;9.98;100.00;100274.75;10446533;28;20037;-79
2023/03/22 21:07:37;;;;;;;20.48;16.13;;;;;;;9.98;100.00;100259.06;10422529;28;20042;-81
2023/03/22 21:12:38;;;;;;;21.63;16.17;;;;;;;10.07;100.00;100276.75;10369617;28;20025;-84
2023/03/22 21:17:39;;;;;;;21.02;15.82;;;;;;;10.06;100.00;100260.50;10413332;28;20049;-77
2023/03/22 21:22:40;;;;;;;21.55;17.10;;;;;;;10.11;100.00;100260.56;10379323;28;20055;-80
2023/03/22 21:27:41;;;;;;;23.20;17.60;;;;;;;10.01;100.00;100238.50;10407950;28;20045;-69
2023/03/22 21:32:43;;;;;;;27.00;17.17;;;;;;;10.07;100.00;100242.94;10422439;28;20052;-76
2023/03/22 21:37:43;;;;;;;22.50;16.27;;;;;;;10.08;100.00;100244.56;10397029;28;20045;-77
2023/03/22 21:42:52;;;;;;;21.88;17.65;;;;;;;10.03;100.00;100239.88;10444667;28;20033;-76
2023/03/22 21:47:56;;;;;;;23.35;17.55;;;;;;;10.06;100.00;100263.25;10432969;28;20049;-77
2023/03/22 21:52:57;;;;;;;21.15;16.67;;;;;;;10.02;100.00;100220.88;10429502;28;20033;-75
2023/03/22 21:57:58;;;;;;;22.92;16.67;;;;;;;10.06;100.00;100222.00;10395930;28;20033;-76
2023/03/22 22:02:59;;;;;;;20.65;15.48;;;;;;;9.78;100.00;100173.75;10412148;28;20117;-77
2023/03/22 22:08:00;;;;;;;21.40;17.15;;;;;;;10.14;100.00;100213.25;10445519;28;20053;-77
2023/03/22 22:13:00;;;;;;;24.85;17.63;;;;;;;10.11;100.00;100222.06;10429111;28;20037;-78
2023/03/22 22:18:04;;;;;;;21.15;16.38;;;;;;;10.09;100.00;100210.50;10405619;28;20037;-78
2023/03/22 22:23:04;;;;;;;21.95;16.70;;;;;;;10.05;100.00;100196.44;10438728;28;20037;-80
2023/03/22 22:28:05;;;;;;;22.45;17.55;;;;;;;10.14;100.00;100210.50;10427186;28;20075;-80
2023/03/22 22:33:06;;;;;;;24.83;17.45;;;;;;;10.14;100.00;100210.50;10446176;28;20045;-78
2023/03/22 22:38:06;;;;;;;22.50;17.48;;;;;;;10.03;100.00;100186.81;10425379;28;20041;-79
2023/03/22 22:43:07;;;;;;;24.58;17.40;;;;;;;10.06;100.00;100170.56;10409214;28;20064;-77
2023/03/22 22:48:07;;;;;;;25.65;18.38;;;;;;;10.10;100.00;100181.88;10425585;28;20041;-77